Big Bear Station Historical Data
Daily Summary for October 10, 2017 Units:  English    Metric   Both
« Previous Day
Next Day »
Daily Weekly Monthly Yearly Custom
  High: Low: Average:
Temperature: 65.7 °F 27.1 °F 44 °F
Dew Point: 30.5 °F 11.7 °F 17.8 °F
Humidity: 77 % 16 % 41 %
Wind Speed: 6.3 mph 0.0 mph 1.1 mph
Wind Gust: -999.0 mph - -
Wind:- - WNW
Pressure: 30.19 in 30.13 in -
Precipitation: 0.00 in    
Historical Graphs
 
 
Tabular Data for October 10, 2017
Time Temperature Dew Point Pressure Wind Wind Speed Wind Gust Humidity Rainfall Rate (Hourly)
00:08 33.4 °F 17.2 °F 30.19 in Calm   -999.0 mph 51 % 0 in
00:24 32.9 °F 17.2 °F 30.19 in Calm   -999.0 mph 52 % 0 in
00:39 32.4 °F 16.3 °F 30.19 in Calm   -999.0 mph 51 % 0 in
00:54 32.2 °F 16.1 °F 30.19 in Calm   -999.0 mph 51 % 0 in
01:09 31.6 °F 16.4 °F 30.19 in Calm   -999.0 mph 53 % 0 in
01:24 31.3 °F 15.7 °F 30.19 in Calm   -999.0 mph 52 % 0 in
01:40 30.9 °F 14.9 °F 30.19 in Calm   -999.0 mph 51 % 0 in
01:55 30.4 °F 17.4 °F 30.18 in Calm   -999.0 mph 58 % 0 in
02:10 30.4 °F 17.0 °F 30.18 in Calm   -999.0 mph 57 % 0 in
02:25 30.2 °F 16.4 °F 30.18 in Calm   -999.0 mph 56 % 0 in
02:40 30.2 °F 13.8 °F 30.18 in Calm   -999.0 mph 50 % 0 in
02:56 29.8 °F 12.0 °F 30.18 in Calm   -999.0 mph 47 % 0 in
03:11 29.3 °F 12.5 °F 30.17 in Calm   -999.0 mph 49 % 0 in
03:26 29.3 °F 17.1 °F 30.17 in Calm   -999.0 mph 60 % 0 in
03:41 29.1 °F 18.8 °F 30.17 in Calm   -999.0 mph 65 % 0 in
03:57 28.8 °F 18.9 °F 30.16 in Calm   -999.0 mph 66 % 0 in
04:12 28.2 °F 15.3 °F 30.17 in Calm   -999.0 mph 58 % 0 in
04:27 28.2 °F 14.5 °F 30.16 in Calm   -999.0 mph 56 % 0 in
04:42 27.9 °F 15.4 °F 30.16 in Calm   -999.0 mph 59 % 0 in
04:57 27.7 °F 16.0 °F 30.16 in Calm   -999.0 mph 61 % 0 in
05:13 27.9 °F 16.2 °F 30.16 in Calm   -999.0 mph 61 % 0 in
05:43 27.7 °F 17.8 °F 30.17 in Calm   -999.0 mph 66 % 0 in
05:58 27.1 °F 17.2 °F 30.17 in Calm   -999.0 mph 66 % 0 in
06:13 27.7 °F 17.8 °F 30.17 in Calm   -999.0 mph 66 % 0 in
06:29 27.5 °F 17.6 °F 30.17 in Calm   -999.0 mph 66 % 0 in
06:59 27.7 °F 17.8 °F 30.17 in Calm   -999.0 mph 66 % 0 in
07:14 27.7 °F 20.2 °F 30.17 in Calm   -999.0 mph 73 % 0 in
07:30 27.7 °F 20.5 °F 30.17 in Calm   -999.0 mph 74 % 0 in
07:45 28.4 °F 22.1 °F 30.18 in Calm   -999.0 mph 77 % 0 in
08:00 28.9 °F 22.0 °F 30.18 in Calm   -999.0 mph 75 % 0 in
08:16 31.5 °F 22.8 °F 30.18 in Calm   -999.0 mph 70 % 0 in
08:31 30.9 °F 22.6 °F 30.18 in Calm   -999.0 mph 71 % 0 in
08:46 32.0 °F 24.0 °F 30.19 in Calm   -999.0 mph 72 % 0 in
09:01 33.8 °F 24.7 °F 30.19 in Calm   -999.0 mph 69 % 0 in
09:17 35.8 °F 26.6 °F 30.19 in Calm   -999.0 mph 69 % 0 in
09:32 38.5 °F 29.2 °F 30.19 in Calm   -999.0 mph 69 % 0 in
09:47 41.4 °F 30.5 °F 30.19 in Calm   -999.0 mph 65 % 0 in
10:02 45.3 °F 25.7 °F 30.19 in WNW 2.2 mph -999.0 mph 46 % 0 in
10:17 50.7 °F 12.1 °F 30.18 in SW 1.1 mph -999.0 mph 21 % 0 in
10:33 55.6 °F 15.1 °F 30.18 in NW 1.7 mph -999.0 mph 20 % 0 in
10:48 57.6 °F 13.1 °F 30.18 in NW 2.2 mph -999.0 mph 17 % 0 in
11:03 59.0 °F 14.2 °F 30.18 in NW 3.7 mph -999.0 mph 17 % 0 in
11:18 60.4 °F 16.7 °F 30.18 in NW 3.7 mph -999.0 mph 18 % 0 in
11:33 61.3 °F 14.7 °F 30.18 in NW 3.2 mph -999.0 mph 16 % 0 in
11:49 61.9 °F 16.6 °F 30.18 in SW 4.2 mph -999.0 mph 17 % 0 in
12:04 63.1 °F 17.5 °F 30.18 in NNW 4.2 mph -999.0 mph 17 % 0 in
12:19 63.5 °F 17.9 °F 30.18 in NW 4.7 mph -999.0 mph 17 % 0 in
12:34 64.6 °F 18.8 °F 30.17 in NW 2.2 mph -999.0 mph 17 % 0 in
12:49 64.9 °F 19.0 °F 30.17 in WNW 4.7 mph -999.0 mph 17 % 0 in
13:05 64.8 °F 18.9 °F 30.16 in NNW 5.3 mph -999.0 mph 17 % 0 in
13:20 65.7 °F 21.0 °F 30.16 in NW 4.7 mph -999.0 mph 18 % 0 in
13:50 64.9 °F 22.8 °F 30.15 in WNW 4.7 mph -999.0 mph 20 % 0 in
14:05 64.6 °F 21.4 °F 30.15 in NNW 3.2 mph -999.0 mph 19 % 0 in
14:36 63.5 °F 19.2 °F 30.14 in NNW 3.7 mph -999.0 mph 18 % 0 in
14:51 63.3 °F 21.5 °F 30.14 in NW 4.2 mph -999.0 mph 20 % 0 in
15:07 63.3 °F 22.7 °F 30.14 in WNW 3.7 mph -999.0 mph 21 % 0 in
15:22 62.8 °F 19.9 °F 30.14 in NW 4.2 mph -999.0 mph 19 % 0 in
15:38 62.8 °F 21.1 °F 30.14 in NW 4.2 mph -999.0 mph 20 % 0 in
15:53 62.2 °F 15.4 °F 30.14 in WNW 2.2 mph -999.0 mph 16 % 0 in
16:08 62.1 °F 20.5 °F 30.13 in NW 4.2 mph -999.0 mph 20 % 0 in
16:23 60.8 °F 18.2 °F 30.14 in NW 3.2 mph -999.0 mph 19 % 0 in
16:39 60.3 °F 20.2 °F 30.13 in NW 6.3 mph -999.0 mph 21 % 0 in
16:54 59.4 °F 19.4 °F 30.13 in NNW 2.7 mph -999.0 mph 21 % 0 in
17:10 59.0 °F 16.8 °F 30.13 in NW 4.7 mph -999.0 mph 19 % 0 in
17:25 58.5 °F 16.3 °F 30.13 in Calm   -999.0 mph 19 % 0 in
17:40 57.0 °F 13.9 °F 30.13 in East 1.7 mph -999.0 mph 18 % 0 in
17:55 55.6 °F 13.9 °F 30.13 in Calm   -999.0 mph 19 % 0 in
18:11 54.1 °F 12.7 °F 30.14 in Calm   -999.0 mph 19 % 0 in
18:26 52.7 °F 12.7 °F 30.14 in Calm   -999.0 mph 20 % 0 in
18:41 51.6 °F 12.9 °F 30.14 in Calm   -999.0 mph 21 % 0 in
18:56 50.2 °F 11.7 °F 30.14 in Calm   -999.0 mph 21 % 0 in
19:12 49.3 °F 13.0 °F 30.14 in Calm   -999.0 mph 23 % 0 in
19:27 48.6 °F 12.4 °F 30.14 in Calm   -999.0 mph 23 % 0 in
19:42 48.7 °F 13.5 °F 30.16 in Calm   -999.0 mph 24 % 0 in
19:57 47.3 °F 13.2 °F 30.15 in Calm   -999.0 mph 25 % 0 in
20:13 45.9 °F 14.6 °F 30.15 in Calm   -999.0 mph 28 % 0 in
20:28 44.2 °F 13.9 °F 30.15 in Calm   -999.0 mph 29 % 0 in
20:43 43.7 °F 15.7 °F 30.15 in Calm   -999.0 mph 32 % 0 in
20:59 42.8 °F 15.7 °F 30.16 in Calm   -999.0 mph 33 % 0 in
21:14 41.7 °F 14.0 °F 30.16 in Calm   -999.0 mph 32 % 0 in
21:29 40.3 °F 13.4 °F 30.16 in Calm   -999.0 mph 33 % 0 in
21:44 39.7 °F 16.1 °F 30.16 in Calm   -999.0 mph 38 % 0 in
21:59 39.6 °F 20.5 °F 30.16 in Calm   -999.0 mph 46 % 0 in
22:15 39.4 °F 21.8 °F 30.15 in Calm   -999.0 mph 49 % 0 in
22:30 39.2 °F 20.6 °F 30.15 in SSE 1.1 mph -999.0 mph 47 % 0 in
22:45 39.2 °F 19.6 °F 30.15 in Calm   -999.0 mph 45 % 0 in
23:00 38.8 °F 19.8 °F 30.15 in Calm   -999.0 mph 46 % 0 in
23:15 38.5 °F 20.0 °F 30.15 in Calm   -999.0 mph 47 % 0 in
23:31 37.9 °F 21.8 °F 30.15 in Calm   -999.0 mph 52 % 0 in
23:46 37.6 °F 22.9 °F 30.14 in Calm   -999.0 mph 55 % 0 in
Big Bear CA Weather
Compliments of Weather Underground - 1.5 mb